createdAt,value
2023-02-18T00:00:02.165Z,547.0000
2023-02-18T00:01:04.399Z,550.0000
2023-02-18T00:02:06.730Z,546.0000
2023-02-18T00:03:09.025Z,546.0000
2023-02-18T00:04:11.362Z,544.0000
2023-02-18T00:05:13.756Z,550.0000
2023-02-18T00:06:16.092Z,551.0000
2023-02-18T00:07:18.477Z,548.0000
2023-02-18T00:08:18.699Z,551.0000
2023-02-18T00:09:21.100Z,554.0000
2023-02-18T00:10:23.444Z,553.0000
2023-02-18T00:11:23.679Z,552.0000
2023-02-18T00:12:26.018Z,552.0000
2023-02-18T00:13:28.344Z,553.0000
2023-02-18T00:14:28.522Z,550.0000
2023-02-18T00:15:30.954Z,549.0000
2023-02-18T00:16:33.276Z,549.0000
2023-02-18T00:17:33.516Z,549.0000
2023-02-18T00:18:35.900Z,547.0000
2023-02-18T00:19:38.275Z,548.0000
2023-02-18T00:20:38.580Z,548.0000
2023-02-18T00:21:40.971Z,545.0000
2023-02-18T00:22:43.374Z,545.0000
2023-02-18T00:23:45.742Z,545.0000
2023-02-18T00:24:48.140Z,544.0000
2023-02-18T00:25:48.428Z,550.0000
2023-02-18T00:26:50.852Z,551.0000
2023-02-18T00:27:53.255Z,551.0000
2023-02-18T00:28:53.470Z,552.0000
2023-02-18T00:29:55.972Z,552.0000
2023-02-18T00:30:58.339Z,550.0000
2023-02-18T00:32:00.868Z,547.0000
2023-02-18T00:33:03.102Z,546.0000
2023-02-18T00:34:03.370Z,546.0000
2023-02-18T00:35:05.784Z,547.0000
2023-02-18T00:36:08.491Z,547.0000
2023-02-18T00:37:08.360Z,547.0000
2023-02-18T00:38:10.722Z,549.0000
2023-02-18T00:40:24.130Z,536.0000
2023-02-18T00:41:26.429Z,533.0000
2023-02-18T00:42:28.739Z,532.0000
2023-02-18T00:43:31.033Z,531.0000
2023-02-18T00:44:33.358Z,531.0000
2023-02-18T00:45:35.660Z,534.0000
2023-02-18T00:46:35.979Z,532.0000
2023-02-18T00:47:38.107Z,534.0000
2023-02-18T00:48:40.451Z,535.0000
2023-02-18T00:49:42.786Z,538.0000
2023-02-18T00:50:45.142Z,541.0000
2023-02-18T00:51:47.487Z,544.0000
2023-02-18T00:52:47.655Z,538.0000
2023-02-18T00:53:48.871Z,538.0000
2023-02-18T00:54:51.216Z,539.0000
2023-02-18T00:55:53.553Z,536.0000
2023-02-18T00:56:55.954Z,538.0000
2023-02-18T00:57:56.143Z,537.0000
2023-02-18T00:58:58.459Z,539.0000
2023-02-18T01:00:00.807Z,539.0000
2023-02-18T01:01:03.185Z,540.0000
2023-02-18T01:02:05.538Z,542.0000
2023-02-18T01:03:07.884Z,541.0000
2023-02-18T01:04:08.116Z,541.0000
2023-02-18T01:05:10.495Z,540.0000
2023-02-18T01:06:12.863Z,539.0000
2023-02-18T01:07:13.079Z,539.0000
2023-02-18T01:08:15.366Z,534.0000
2023-02-18T01:09:17.653Z,535.0000
2023-02-18T01:10:19.924Z,532.0000
2023-02-18T01:11:20.063Z,527.0000
2023-02-18T01:12:22.398Z,531.0000
2023-02-18T01:13:24.732Z,528.0000
2023-02-18T01:14:24.931Z,527.0000
2023-02-18T01:15:27.331Z,526.0000
2023-02-18T01:16:29.761Z,531.0000
2023-02-18T01:17:29.987Z,532.0000
2023-02-18T01:18:32.347Z,533.0000
2023-02-18T01:19:34.768Z,533.0000
2023-02-18T01:20:35.027Z,533.0000
2023-02-18T01:21:37.422Z,536.0000
2023-02-18T01:22:39.985Z,534.0000
2023-02-18T01:23:42.274Z,533.0000
2023-02-18T01:24:46.313Z,532.0000
2023-02-18T01:25:44.966Z,536.0000
2023-02-18T01:26:47.402Z,535.0000
2023-02-18T01:27:49.842Z,536.0000
2023-02-18T01:28:52.273Z,536.0000
2023-02-18T01:29:54.665Z,535.0000
2023-02-18T01:30:57.164Z,532.0000
2023-02-18T01:31:59.657Z,531.0000
2023-02-18T01:32:59.924Z,529.0000
2023-02-18T01:34:02.218Z,530.0000
2023-02-18T01:35:04.643Z,532.0000
2023-02-18T01:36:07.447Z,535.0000
2023-02-18T01:37:09.442Z,536.0000
2023-02-18T01:38:09.713Z,535.0000
2023-02-18T01:39:12.047Z,537.0000
2023-02-18T01:40:14.425Z,541.0000
2023-02-18T01:41:14.678Z,542.0000
2023-02-18T01:42:17.040Z,541.0000
2023-02-18T01:43:19.593Z,542.0000
2023-02-18T01:44:19.648Z,542.0000
2023-02-18T01:45:22.018Z,540.0000
2023-02-18T01:46:24.508Z,539.0000
2023-02-18T01:47:24.665Z,542.0000
2023-02-18T01:48:27.112Z,544.0000
2023-02-18T01:49:29.498Z,546.0000
2023-02-18T01:50:31.854Z,545.0000
2023-02-18T01:51:34.246Z,541.0000
2023-02-18T01:52:34.457Z,537.0000
2023-02-18T01:53:36.992Z,538.0000
2023-02-18T01:54:39.283Z,534.0000
2023-02-18T01:55:39.530Z,522.0000
2023-02-18T01:56:41.865Z,525.0000
2023-02-18T01:57:44.240Z,522.0000
2023-02-18T01:58:44.534Z,527.0000
2023-02-18T01:59:46.922Z,526.0000
2023-02-18T02:00:49.350Z,529.0000
2023-02-18T02:01:51.835Z,531.0000
2023-02-18T02:02:54.144Z,532.0000
2023-02-18T02:03:54.451Z,534.0000
2023-02-18T02:04:56.834Z,532.0000
2023-02-18T02:05:59.282Z,531.0000
2023-02-18T02:07:01.710Z,530.0000
2023-02-18T02:08:04.134Z,531.0000
2023-02-18T02:09:04.523Z,530.0000
2023-02-18T02:10:06.780Z,530.0000
2023-02-18T02:11:09.138Z,526.0000
2023-02-18T02:12:11.512Z,525.0000
2023-02-18T02:13:13.910Z,530.0000
2023-02-18T02:14:14.176Z,530.0000
2023-02-18T02:15:16.541Z,532.0000
2023-02-18T02:16:19.003Z,532.0000
2023-02-18T02:17:19.163Z,529.0000
2023-02-18T02:18:21.554Z,529.0000
2023-02-18T02:19:23.953Z,527.0000
2023-02-18T02:20:24.199Z,530.0000
2023-02-18T02:21:26.597Z,531.0000
2023-02-18T02:22:29.042Z,530.0000
2023-02-18T02:23:31.456Z,530.0000
2023-02-18T02:24:33.909Z,526.0000
2023-02-18T02:25:34.144Z,529.0000
2023-02-18T02:26:36.579Z,530.0000
2023-02-18T02:27:38.995Z,534.0000
2023-02-18T02:28:41.427Z,534.0000
2023-02-18T02:29:43.879Z,532.0000
2023-02-18T02:30:44.183Z,534.0000
2023-02-18T02:31:46.662Z,534.0000
2023-02-18T02:32:48.961Z,534.0000
2023-02-18T02:33:51.318Z,534.0000
2023-02-18T02:34:53.731Z,535.0000
2023-02-18T02:35:53.943Z,537.0000
2023-02-18T02:36:56.390Z,535.0000
2023-02-18T02:37:58.765Z,530.0000
2023-02-18T02:38:59.040Z,530.0000
2023-02-18T02:40:01.501Z,530.0000
2023-02-18T02:41:03.823Z,531.0000
2023-02-18T02:42:06.193Z,534.0000
2023-02-18T02:43:08.623Z,533.0000
2023-02-18T02:44:08.838Z,530.0000
2023-02-18T02:45:11.302Z,533.0000
2023-02-18T02:46:13.796Z,527.0000
2023-02-18T02:47:16.076Z,532.0000
2023-02-18T02:48:18.504Z,535.0000
2023-02-18T02:49:18.795Z,532.0000
2023-02-18T02:50:21.232Z,530.0000
2023-02-18T02:51:23.672Z,531.0000
2023-02-18T02:52:26.094Z,530.0000
2023-02-18T02:53:28.532Z,529.0000
2023-02-18T02:54:28.876Z,529.0000
2023-02-18T02:55:31.270Z,529.0000
2023-02-18T02:56:33.642Z,531.0000
2023-02-18T02:57:36.028Z,530.0000
2023-02-18T02:58:38.456Z,530.0000
2023-02-18T02:59:38.735Z,528.0000
2023-02-18T03:00:41.247Z,528.0000
2023-02-18T03:01:43.622Z,527.0000
2023-02-18T03:02:46.050Z,526.0000
2023-02-18T03:03:48.454Z,529.0000
2023-02-18T03:04:50.874Z,530.0000
2023-02-18T03:05:53.355Z,530.0000
2023-02-18T03:06:53.594Z,530.0000
2023-02-18T03:07:56.033Z,530.0000
2023-02-18T03:08:58.473Z,528.0000
2023-02-18T03:10:00.888Z,528.0000
2023-02-18T03:11:03.332Z,526.0000
2023-02-18T03:12:03.516Z,526.0000
2023-02-18T03:13:05.952Z,523.0000
2023-02-18T03:14:08.399Z,527.0000
2023-02-18T03:15:10.774Z,527.0000
2023-02-18T03:16:13.241Z,529.0000
2023-02-18T03:17:13.396Z,529.0000
2023-02-18T03:18:15.785Z,528.0000
2023-02-18T03:19:18.210Z,527.0000
2023-02-18T03:20:18.502Z,527.0000
2023-02-18T03:21:20.936Z,522.0000
2023-02-18T03:22:23.288Z,521.0000
2023-02-18T03:23:25.640Z,519.0000
2023-02-18T03:24:28.028Z,520.0000
2023-02-18T03:25:28.244Z,520.0000
2023-02-18T03:26:30.731Z,522.0000
2023-02-18T03:27:33.033Z,522.0000
2023-02-18T03:28:33.246Z,523.0000
2023-02-18T03:29:35.627Z,522.0000
2023-02-18T03:30:38.009Z,521.0000
2023-02-18T03:31:38.412Z,520.0000
2023-02-18T03:32:40.549Z,525.0000
2023-02-18T03:33:42.858Z,525.0000
2023-02-18T03:34:43.060Z,524.0000
2023-02-18T03:35:45.413Z,525.0000
2023-02-18T03:36:47.820Z,525.0000
2023-02-18T03:37:48.070Z,523.0000
2023-02-18T03:38:50.436Z,520.0000
2023-02-18T03:39:52.874Z,519.0000
2023-02-18T03:40:53.118Z,514.0000
2023-02-18T03:41:55.511Z,516.0000
2023-02-18T03:42:57.866Z,517.0000
2023-02-18T03:43:58.143Z,517.0000
2023-02-18T03:45:00.528Z,517.0000
2023-02-18T03:46:02.978Z,515.0000
2023-02-18T03:47:05.356Z,512.0000
2023-02-18T03:48:07.724Z,513.0000
2023-02-18T03:49:07.915Z,514.0000
2023-02-18T03:50:10.294Z,517.0000
2023-02-18T03:51:12.641Z,518.0000
2023-02-18T03:52:12.857Z,517.0000
2023-02-18T03:53:15.178Z,518.0000
2023-02-18T03:54:17.553Z,518.0000
2023-02-18T03:55:19.908Z,518.0000
2023-02-18T03:56:22.307Z,514.0000
2023-02-18T03:57:24.751Z,513.0000
2023-02-18T03:58:25.001Z,513.0000
2023-02-18T03:59:27.396Z,513.0000
2023-02-18T04:00:29.759Z,516.0000
2023-02-18T04:01:32.203Z,516.0000
2023-02-18T04:02:34.619Z,516.0000
2023-02-18T04:03:34.850Z,519.0000
2023-02-18T04:04:37.328Z,519.0000
2023-02-18T04:05:39.719Z,517.0000
2023-02-18T04:06:42.151Z,521.0000
2023-02-18T04:07:44.607Z,522.0000
2023-02-18T04:08:44.837Z,524.0000
2023-02-18T04:09:47.229Z,523.0000
2023-02-18T04:10:49.594Z,518.0000
2023-02-18T04:11:52.012Z,517.0000
2023-02-18T04:12:54.434Z,516.0000
2023-02-18T04:13:54.690Z,518.0000
2023-02-18T04:14:57.112Z,516.0000
2023-02-18T04:15:59.536Z,514.0000
2023-02-18T04:17:01.948Z,514.0000
2023-02-18T04:18:04.349Z,514.0000
2023-02-18T04:19:04.623Z,514.0000
2023-02-18T04:20:07.005Z,514.0000
2023-02-18T04:21:09.412Z,517.0000
2023-02-18T04:22:09.673Z,518.0000
2023-02-18T04:23:12.123Z,518.0000
2023-02-18T04:24:14.537Z,516.0000
2023-02-18T04:25:16.946Z,517.0000
2023-02-18T04:26:19.373Z,515.0000
2023-02-18T04:27:21.784Z,517.0000
2023-02-18T04:28:24.262Z,517.0000
2023-02-18T04:29:24.456Z,518.0000
2023-02-18T04:30:27.049Z,520.0000
2023-02-18T04:31:29.405Z,518.0000
2023-02-18T04:32:31.692Z,519.0000
2023-02-18T04:33:34.081Z,520.0000
2023-02-18T04:34:34.354Z,522.0000
2023-02-18T04:35:36.757Z,518.0000
2023-02-18T04:36:39.188Z,517.0000
2023-02-18T04:37:39.473Z,519.0000
2023-02-18T04:38:41.926Z,517.0000
2023-02-18T04:39:44.319Z,519.0000
2023-02-18T04:40:46.749Z,523.0000
2023-02-18T04:41:49.178Z,519.0000
2023-02-18T04:42:51.592Z,518.0000
2023-02-18T04:43:53.972Z,519.0000
2023-02-18T04:44:54.207Z,513.0000
2023-02-18T04:45:56.663Z,514.0000
2023-02-18T04:46:58.961Z,515.0000
2023-02-18T04:47:59.210Z,516.0000
2023-02-18T04:49:01.675Z,521.0000
2023-02-18T04:50:03.926Z,518.0000
2023-02-18T04:51:04.076Z,521.0000
2023-02-18T04:52:06.412Z,519.0000
2023-02-18T04:53:08.770Z,519.0000
2023-02-18T04:54:11.147Z,520.0000
2023-02-18T04:55:13.423Z,519.0000
2023-02-18T04:56:15.747Z,517.0000
2023-02-18T04:57:15.951Z,517.0000
2023-02-18T04:58:18.273Z,514.0000
2023-02-18T04:59:20.639Z,515.0000
2023-02-18T05:00:22.968Z,514.0000
2023-02-18T05:01:25.373Z,516.0000
2023-02-18T05:02:27.740Z,515.0000
2023-02-18T05:03:27.985Z,514.0000
2023-02-18T05:04:30.400Z,513.0000
2023-02-18T05:05:32.759Z,512.0000
2023-02-18T05:06:32.955Z,511.0000
2023-02-18T05:07:35.352Z,511.0000
2023-02-18T05:08:37.749Z,512.0000
2023-02-18T05:09:38.143Z,509.0000
2023-02-18T05:10:40.439Z,510.0000
2023-02-18T05:11:42.868Z,509.0000
2023-02-18T05:12:45.318Z,510.0000
2023-02-18T05:13:47.733Z,509.0000
2023-02-18T05:14:48.040Z,511.0000
2023-02-18T05:15:50.464Z,513.0000
2023-02-18T05:16:52.888Z,513.0000
2023-02-18T05:17:55.267Z,512.0000
2023-02-18T05:18:57.695Z,514.0000
2023-02-18T05:20:00.103Z,513.0000
2023-02-18T05:21:02.513Z,517.0000
2023-02-18T05:22:02.712Z,518.0000
2023-02-18T05:23:05.101Z,518.0000
2023-02-18T05:24:07.526Z,517.0000
2023-02-18T05:25:07.847Z,518.0000
2023-02-18T05:26:10.663Z,517.0000
2023-02-18T05:27:12.638Z,517.0000
2023-02-18T05:28:15.049Z,518.0000
2023-02-18T05:29:17.471Z,514.0000
2023-02-18T05:30:17.768Z,516.0000
2023-02-18T05:31:20.212Z,518.0000
2023-02-18T05:32:22.527Z,514.0000
2023-02-18T05:33:24.947Z,514.0000
2023-02-18T05:34:27.321Z,517.0000
2023-02-18T05:35:27.595Z,518.0000
2023-02-18T05:36:30.000Z,517.0000
2023-02-18T05:37:32.399Z,518.0000
2023-02-18T05:38:32.664Z,522.0000
2023-02-18T05:39:35.054Z,520.0000
2023-02-18T05:40:37.484Z,519.0000
2023-02-18T05:41:39.875Z,519.0000
2023-02-18T05:42:42.245Z,521.0000
2023-02-18T05:43:42.479Z,521.0000
2023-02-18T05:44:44.863Z,520.0000
2023-02-18T05:45:47.247Z,519.0000
2023-02-18T05:46:47.467Z,521.0000
2023-02-18T05:47:49.821Z,519.0000
2023-02-18T05:48:52.180Z,523.0000
2023-02-18T05:49:52.389Z,521.0000
2023-02-18T05:50:54.810Z,520.0000
2023-02-18T05:51:57.200Z,523.0000
2023-02-18T05:52:57.430Z,524.0000
2023-02-18T05:53:59.834Z,522.0000
2023-02-18T05:55:02.230Z,522.0000
2023-02-18T05:56:04.679Z,522.0000
2023-02-18T05:57:07.046Z,520.0000
2023-02-18T05:58:07.318Z,515.0000
2023-02-18T05:59:09.698Z,514.0000
2023-02-18T06:00:12.157Z,515.0000
2023-02-18T06:01:14.716Z,514.0000
2023-02-18T06:02:17.037Z,517.0000
2023-02-18T06:03:17.335Z,517.0000
2023-02-18T06:04:19.806Z,520.0000
2023-02-18T06:05:20.092Z,521.0000
2023-02-18T06:06:22.567Z,519.0000
2023-02-18T06:07:24.989Z,519.0000
2023-02-18T06:08:25.273Z,520.0000
2023-02-18T06:09:27.713Z,521.0000
2023-02-18T06:10:28.019Z,521.0000
2023-02-18T06:11:30.505Z,520.0000
2023-02-18T06:12:32.926Z,516.0000
2023-02-18T06:13:33.207Z,515.0000
2023-02-18T06:14:35.619Z,517.0000
2023-02-18T06:15:37.996Z,517.0000
2023-02-18T06:16:40.509Z,517.0000
2023-02-18T06:17:42.789Z,518.0000
2023-02-18T06:18:43.065Z,520.0000
2023-02-18T06:19:45.465Z,520.0000
2023-02-18T06:20:47.846Z,519.0000
2023-02-18T06:21:48.069Z,518.0000
2023-02-18T06:22:50.435Z,518.0000
2023-02-18T06:23:52.863Z,521.0000
2023-02-18T06:24:55.225Z,634.0000
2023-02-18T06:25:57.670Z,425.0000
2023-02-18T06:26:58.015Z,450.0000
2023-02-18T06:28:00.526Z,398.0000
2023-02-18T06:29:00.910Z,439.0000
2023-02-18T06:30:03.441Z,445.0000
2023-02-18T06:31:03.888Z,441.0000
2023-02-18T06:32:06.513Z,454.0000
2023-02-18T06:33:08.759Z,458.0000
2023-02-18T06:34:11.236Z,454.0000
2023-02-18T06:35:13.696Z,452.0000
2023-02-18T06:36:16.118Z,452.0000
2023-02-18T06:37:18.561Z,453.0000
2023-02-18T06:38:18.805Z,455.0000
2023-02-18T06:39:21.194Z,448.0000
2023-02-18T06:40:23.612Z,447.0000
2023-02-18T06:41:26.030Z,449.0000
2023-02-18T06:42:28.463Z,450.0000
2023-02-18T06:43:28.756Z,452.0000
2023-02-18T06:44:31.254Z,454.0000
2023-02-18T06:45:31.594Z,460.0000
2023-02-18T06:46:34.145Z,460.0000
2023-02-18T06:47:36.628Z,458.0000
2023-02-18T06:48:39.081Z,458.0000
2023-02-18T06:49:41.547Z,450.0000
2023-02-18T06:50:43.978Z,450.0000
2023-02-18T06:51:46.452Z,447.0000
2023-02-18T06:52:46.738Z,439.0000
2023-02-18T06:53:48.056Z,455.0000
2023-02-18T06:54:49.436Z,446.0000
2023-02-18T06:55:51.906Z,444.0000
2023-02-18T06:56:54.322Z,451.0000
2023-02-18T06:57:54.565Z,458.0000
2023-02-18T06:58:56.893Z,463.0000
2023-02-18T06:59:59.267Z,469.0000
2023-02-18T07:00:59.592Z,475.0000
2023-02-18T07:02:01.939Z,476.0000
2023-02-18T07:03:04.337Z,479.0000
2023-02-18T07:04:06.851Z,483.0000
2023-02-18T07:05:09.130Z,485.0000
2023-02-18T07:06:09.818Z,487.0000
2023-02-18T07:07:11.741Z,492.0000
2023-02-18T07:08:14.247Z,494.0000
2023-02-18T07:09:14.348Z,496.0000
2023-02-18T07:10:16.729Z,499.0000
2023-02-18T07:11:19.110Z,501.0000
2023-02-18T07:12:19.370Z,503.0000
2023-02-18T07:13:21.760Z,505.0000
2023-02-18T07:14:24.100Z,510.0000
2023-02-18T07:15:24.517Z,513.0000
2023-02-18T07:16:26.763Z,516.0000
2023-02-18T07:17:29.103Z,518.0000
2023-02-18T07:18:29.316Z,520.0000
2023-02-18T07:19:31.609Z,525.0000
2023-02-18T07:20:33.965Z,528.0000
2023-02-18T07:21:34.221Z,529.0000
2023-02-18T07:22:36.597Z,530.0000
2023-02-18T07:23:39.122Z,531.0000
2023-02-18T07:24:39.235Z,531.0000
2023-02-18T07:25:41.577Z,534.0000
2023-02-18T07:26:43.943Z,541.0000
2023-02-18T07:27:44.117Z,545.0000
2023-02-18T07:28:46.636Z,548.0000
2023-02-18T07:29:48.902Z,549.0000
2023-02-18T07:30:49.143Z,547.0000
2023-02-18T07:31:51.692Z,549.0000
2023-02-18T07:32:53.906Z,551.0000
2023-02-18T07:33:54.119Z,553.0000
2023-02-18T07:34:56.471Z,552.0000
2023-02-18T07:35:58.866Z,551.0000
2023-02-18T07:36:59.117Z,550.0000
2023-02-18T07:38:01.489Z,551.0000
2023-02-18T07:39:04.000Z,555.0000
2023-02-18T07:40:06.257Z,555.0000
2023-02-18T07:41:08.623Z,555.0000
2023-02-18T07:42:08.856Z,557.0000
2023-02-18T07:43:11.249Z,562.0000
2023-02-18T07:44:13.631Z,567.0000
2023-02-18T07:45:13.835Z,567.0000
2023-02-18T07:46:16.270Z,567.0000
2023-02-18T07:47:18.596Z,570.0000
2023-02-18T07:48:18.816Z,567.0000
2023-02-18T07:49:21.242Z,563.0000
2023-02-18T07:50:23.593Z,564.0000
2023-02-18T07:51:23.811Z,566.0000
2023-02-18T07:52:26.160Z,567.0000
2023-02-18T07:53:28.561Z,571.0000
2023-02-18T07:54:28.820Z,572.0000
2023-02-18T07:55:31.217Z,571.0000
2023-02-18T07:56:33.663Z,572.0000
2023-02-18T07:57:33.851Z,572.0000
2023-02-18T07:58:36.243Z,574.0000
2023-02-18T07:59:38.710Z,578.0000
2023-02-18T08:00:41.094Z,578.0000
2023-02-18T08:01:45.056Z,582.0000
2023-02-18T08:02:45.989Z,581.0000
2023-02-18T08:03:48.491Z,580.0000
2023-02-18T08:04:48.760Z,580.0000
2023-02-18T08:05:51.187Z,580.0000
2023-02-18T08:06:51.485Z,579.0000
2023-02-18T08:07:53.906Z,581.0000
2023-02-18T08:08:56.332Z,584.0000
2023-02-18T08:09:56.612Z,585.0000
2023-02-18T08:11:01.033Z,585.0000
2023-02-18T08:12:01.445Z,583.0000
2023-02-18T08:13:03.856Z,583.0000
2023-02-18T08:14:06.255Z,582.0000
2023-02-18T08:15:06.579Z,582.0000
2023-02-18T08:16:09.351Z,583.0000
2023-02-18T08:17:11.393Z,585.0000
2023-02-18T08:18:13.819Z,588.0000
2023-02-18T08:19:16.256Z,587.0000
2023-02-18T08:20:16.620Z,587.0000
2023-02-18T08:21:19.027Z,589.0000
2023-02-18T08:22:19.415Z,591.0000
2023-02-18T08:23:21.714Z,592.0000
2023-02-18T08:24:24.139Z,594.0000
2023-02-18T08:25:29.694Z,597.0000
2023-02-18T08:26:26.865Z,596.0000
2023-02-18T08:27:29.256Z,596.0000
2023-02-18T08:28:31.693Z,599.0000
2023-02-18T08:29:34.126Z,602.0000
2023-02-18T08:30:34.575Z,606.0000
2023-02-18T08:31:36.929Z,608.0000
2023-02-18T08:32:39.271Z,613.0000
2023-02-18T08:33:41.675Z,610.0000
2023-02-18T08:34:44.104Z,618.0000
2023-02-18T08:35:44.406Z,624.0000
2023-02-18T08:36:46.757Z,621.0000
2023-02-18T08:37:52.592Z,627.0000
2023-02-18T08:38:51.536Z,628.0000
2023-02-18T08:39:53.923Z,629.0000
2023-02-18T08:40:54.295Z,623.0000
2023-02-18T08:41:56.650Z,622.0000
2023-02-18T08:42:59.083Z,625.0000
2023-02-18T08:44:01.523Z,661.0000
2023-02-18T08:45:03.983Z,671.0000
2023-02-18T08:46:06.529Z,682.0000
2023-02-18T08:48:16.646Z,675.0000
2023-02-18T08:48:17.097Z,697.0000
2023-02-18T08:49:11.545Z,711.0000
2023-02-18T08:50:13.915Z,725.0000
2023-02-18T08:51:16.291Z,723.0000
2023-02-18T08:52:18.576Z,726.0000
2023-02-18T08:53:20.904Z,716.0000
2023-02-18T08:54:23.226Z,724.0000
2023-02-18T08:55:25.496Z,733.0000
2023-02-18T08:56:27.794Z,754.0000
2023-02-18T08:57:28.012Z,754.0000
2023-02-18T08:58:30.408Z,760.0000
2023-02-18T09:00:45.998Z,758.0000
2023-02-18T09:01:46.270Z,764.0000
2023-02-18T09:02:48.462Z,768.0000
2023-02-18T09:03:50.834Z,769.0000
2023-02-18T09:04:52.974Z,778.0000
2023-02-18T09:05:55.258Z,785.0000
2023-02-18T09:06:57.564Z,790.0000
2023-02-18T09:07:59.868Z,794.0000
2023-02-18T09:09:00.018Z,805.0000
2023-02-18T09:10:02.307Z,809.0000
2023-02-18T09:11:04.572Z,806.0000
2023-02-18T09:12:06.866Z,811.0000
2023-02-18T09:13:09.081Z,805.0000
2023-02-18T09:14:11.421Z,801.0000
2023-02-18T09:15:13.734Z,801.0000
2023-02-18T09:16:13.942Z,805.0000
2023-02-18T09:17:16.313Z,817.0000
2023-02-18T09:18:18.629Z,828.0000
2023-02-18T09:19:20.982Z,830.0000
2023-02-18T09:20:23.348Z,836.0000
2023-02-18T09:21:23.570Z,842.0000
2023-02-18T09:22:25.976Z,843.0000
2023-02-18T09:23:28.317Z,837.0000
2023-02-18T09:24:30.687Z,837.0000
2023-02-18T09:25:33.033Z,834.0000
2023-02-18T09:26:35.367Z,830.0000
2023-02-18T09:27:37.753Z,829.0000
2023-02-18T09:28:40.108Z,827.0000
2023-02-18T09:29:42.461Z,822.0000
2023-02-18T09:30:44.833Z,822.0000
2023-02-18T09:31:45.152Z,826.0000
2023-02-18T09:32:47.402Z,825.0000
2023-02-18T09:33:49.744Z,822.0000
2023-02-18T09:34:52.127Z,824.0000
2023-02-18T09:35:54.447Z,826.0000
2023-02-18T09:36:56.802Z,821.0000
2023-02-18T09:37:59.209Z,821.0000
2023-02-18T09:39:01.549Z,821.0000
2023-02-18T09:40:01.758Z,823.0000
2023-02-18T09:41:04.090Z,824.0000
2023-02-18T09:42:06.436Z,830.0000
2023-02-18T09:43:08.840Z,833.0000
2023-02-18T09:44:11.158Z,835.0000
2023-02-18T09:45:11.347Z,829.0000
2023-02-18T09:46:13.776Z,719.0000
2023-02-18T09:47:16.078Z,853.0000
2023-02-18T09:48:18.453Z,878.0000
2023-02-18T09:49:20.744Z,886.0000
2023-02-18T09:50:20.972Z,882.0000
2023-02-18T09:51:23.343Z,882.0000
2023-02-18T09:52:23.559Z,886.0000
2023-02-18T09:53:25.964Z,885.0000
2023-02-18T09:54:28.304Z,888.0000
2023-02-18T09:55:30.663Z,898.0000
2023-02-18T09:56:30.811Z,905.0000
2023-02-18T09:57:33.181Z,921.0000
2023-02-18T09:58:35.569Z,909.0000
2023-02-18T09:59:37.937Z,900.0000
2023-02-18T10:00:40.289Z,898.0000
2023-02-18T10:01:40.550Z,900.0000
2023-02-18T10:02:42.841Z,905.0000
2023-02-18T10:03:45.244Z,913.0000
2023-02-18T10:04:47.502Z,914.0000
2023-02-18T10:05:47.721Z,920.0000
2023-02-18T10:06:50.033Z,918.0000
2023-02-18T10:07:52.415Z,924.0000
2023-02-18T10:08:54.804Z,955.0000
2023-02-18T10:09:57.126Z,952.0000
2023-02-18T10:10:59.485Z,952.0000
2023-02-18T10:11:59.658Z,954.0000
2023-02-18T10:13:01.958Z,959.0000
2023-02-18T10:14:04.297Z,958.0000
2023-02-18T10:15:06.575Z,954.0000
2023-02-18T10:16:09.218Z,952.0000
2023-02-18T10:17:11.180Z,939.0000
2023-02-18T10:18:13.502Z,954.0000
2023-02-18T10:19:15.881Z,965.0000
2023-02-18T10:20:18.129Z,953.0000
2023-02-18T10:21:20.453Z,956.0000
2023-02-18T10:22:22.780Z,959.0000
2023-02-18T10:23:22.911Z,952.0000
2023-02-18T10:24:25.236Z,944.0000
2023-02-18T10:25:27.521Z,943.0000
2023-02-18T10:26:29.844Z,939.0000
2023-02-18T10:27:32.134Z,937.0000
2023-02-18T10:28:34.452Z,930.0000
2023-02-18T10:29:34.656Z,919.0000
2023-02-18T10:30:37.037Z,916.0000
2023-02-18T10:31:39.352Z,912.0000
2023-02-18T10:32:41.581Z,908.0000
2023-02-18T10:33:43.903Z,902.0000
2023-02-18T10:34:44.188Z,907.0000
2023-02-18T10:35:46.362Z,898.0000
2023-02-18T10:36:48.642Z,901.0000
2023-02-18T10:37:50.965Z,899.0000
2023-02-18T10:38:53.264Z,897.0000
2023-02-18T10:39:55.635Z,895.0000
2023-02-18T10:40:55.771Z,898.0000
2023-02-18T10:41:56.975Z,893.0000
2023-02-18T10:42:57.210Z,888.0000
2023-02-18T10:43:58.560Z,885.0000
2023-02-18T10:45:00.992Z,886.0000
2023-02-18T10:46:03.335Z,883.0000
2023-02-18T10:47:03.510Z,884.0000
2023-02-18T10:48:05.888Z,874.0000
2023-02-18T10:49:08.232Z,884.0000
2023-02-18T10:50:10.581Z,882.0000
2023-02-18T10:51:12.940Z,877.0000
2023-02-18T10:52:13.157Z,876.0000
2023-02-18T10:53:15.533Z,866.0000
2023-02-18T10:54:17.938Z,880.0000
2023-02-18T10:55:20.350Z,877.0000
2023-02-18T10:56:20.676Z,872.0000
2023-02-18T10:57:22.917Z,870.0000
2023-02-18T10:58:25.280Z,874.0000
2023-02-18T10:59:27.659Z,856.0000
2023-02-18T11:00:30.000Z,828.0000
2023-02-18T11:01:30.135Z,699.0000
2023-02-18T11:02:32.498Z,675.0000
2023-02-18T11:03:34.718Z,671.0000
2023-02-18T11:04:37.048Z,741.0000
2023-02-18T11:05:39.346Z,769.0000
2023-02-18T11:06:41.605Z,775.0000
2023-02-18T11:07:43.862Z,798.0000
2023-02-18T11:08:43.948Z,811.0000
2023-02-18T11:09:46.957Z,812.0000
2023-02-18T11:10:48.409Z,816.0000
2023-02-18T11:11:57.082Z,818.0000
2023-02-18T11:12:52.890Z,823.0000
2023-02-18T11:13:55.161Z,820.0000
2023-02-18T11:14:57.429Z,819.0000
2023-02-18T11:15:59.779Z,817.0000
2023-02-18T11:16:59.799Z,817.0000
2023-02-18T11:18:02.016Z,818.0000
2023-02-18T11:19:04.292Z,812.0000
2023-02-18T11:20:06.558Z,811.0000
2023-02-18T11:21:09.140Z,809.0000
2023-02-18T11:22:11.061Z,806.0000
2023-02-18T11:23:13.385Z,802.0000
2023-02-18T11:24:15.770Z,796.0000
2023-02-18T11:25:15.997Z,785.0000
2023-02-18T11:26:18.409Z,786.0000
2023-02-18T11:27:20.743Z,786.0000
2023-02-18T11:28:23.129Z,785.0000
2023-02-18T11:29:23.369Z,785.0000
2023-02-18T11:30:25.950Z,785.0000
2023-02-18T11:31:28.214Z,789.0000
2023-02-18T11:32:30.512Z,789.0000
2023-02-18T11:33:32.881Z,787.0000
2023-02-18T11:34:33.130Z,790.0000
2023-02-18T11:35:35.445Z,791.0000
2023-02-18T11:36:35.709Z,789.0000
2023-02-18T11:37:38.026Z,790.0000
2023-02-18T11:38:40.361Z,792.0000
2023-02-18T11:39:40.545Z,789.0000
2023-02-18T11:40:42.934Z,791.0000
2023-02-18T11:41:45.354Z,788.0000
2023-02-18T11:42:47.702Z,791.0000
2023-02-18T11:43:47.948Z,784.0000
2023-02-18T11:44:50.333Z,784.0000
2023-02-18T11:45:52.733Z,786.0000
2023-02-18T11:46:55.209Z,784.0000
2023-02-18T11:47:57.507Z,786.0000
2023-02-18T11:48:59.848Z,785.0000
2023-02-18T11:50:02.224Z,785.0000
2023-02-18T11:51:02.395Z,792.0000
2023-02-18T11:52:04.841Z,791.0000
2023-02-18T11:53:07.133Z,792.0000
2023-02-18T11:54:09.453Z,793.0000
2023-02-18T11:55:11.801Z,799.0000
2023-02-18T11:56:11.974Z,795.0000
2023-02-18T11:57:14.387Z,797.0000
2023-02-18T11:58:15.572Z,797.0000
2023-02-18T11:59:17.939Z,795.0000
2023-02-18T12:00:19.293Z,800.0000
2023-02-18T12:01:21.660Z,800.0000
2023-02-18T12:02:24.016Z,795.0000
2023-02-18T12:03:26.379Z,799.0000
2023-02-18T12:04:26.558Z,800.0000
2023-02-18T12:05:29.024Z,801.0000
2023-02-18T12:06:31.294Z,798.0000
2023-02-18T12:07:33.677Z,802.0000
2023-02-18T12:08:36.020Z,794.0000